sensor_id;sensor_type;location;lat;lon;timestamp;pressure;altitude;pressure_sealevel;temperature;humidity
30935;BME280;51033;42.648;23.292;2023-03-16T00:02:04;92989.06;;;2.92;66.61
30935;BME280;51033;42.648;23.292;2023-03-16T00:04:30;92972.53;;;2.73;66.55
30935;BME280;51033;42.648;23.292;2023-03-16T00:06:56;92997.50;;;2.51;67.46
30935;BME280;51033;42.648;23.292;2023-03-16T00:09:22;92981.78;;;2.28;67.67
30935;BME280;51033;42.648;23.292;2023-03-16T00:11:55;92988.88;;;2.27;67.99
30935;BME280;51033;42.648;23.292;2023-03-16T00:14:21;92996.31;;;2.20;68.55
30935;BME280;51033;42.648;23.292;2023-03-16T00:16:47;93012.16;;;2.10;69.16
30935;BME280;51033;42.648;23.292;2023-03-16T00:19:12;93024.09;;;2.21;69.00
30935;BME280;51033;42.648;23.292;2023-03-16T00:21:37;93002.31;;;2.21;67.70
30935;BME280;51033;42.648;23.292;2023-03-16T00:24:03;92958.09;;;2.14;67.34
30935;BME280;51033;42.648;23.292;2023-03-16T00:26:28;93002.09;;;2.17;68.07
30935;BME280;51033;42.648;23.292;2023-03-16T00:28:54;92991.13;;;2.15;67.50
30935;BME280;51033;42.648;23.292;2023-03-16T00:31:19;92993.53;;;1.88;67.79
30935;BME280;51033;42.648;23.292;2023-03-16T00:33:44;93003.69;;;1.94;68.63
30935;BME280;51033;42.648;23.292;2023-03-16T00:36:10;93009.53;;;2.10;68.64
30935;BME280;51033;42.648;23.292;2023-03-16T00:38:38;92993.75;;;2.15;68.33
30935;BME280;51033;42.648;23.292;2023-03-16T00:41:06;93025.81;;;2.31;68.39
30935;BME280;51033;42.648;23.292;2023-03-16T00:43:33;93012.38;;;2.37;67.76
30935;BME280;51033;42.648;23.292;2023-03-16T00:46:07;93032.03;;;2.40;67.31
30935;BME280;51033;42.648;23.292;2023-03-16T00:48:34;93021.88;;;2.33;67.42
30935;BME280;51033;42.648;23.292;2023-03-16T00:51:06;93034.03;;;2.48;67.47
30935;BME280;51033;42.648;23.292;2023-03-16T00:53:32;93025.66;;;2.22;67.39
30935;BME280;51033;42.648;23.292;2023-03-16T00:55:58;92984.44;;;1.75;68.47
30935;BME280;51033;42.648;23.292;2023-03-16T00:58:24;93037.50;;;1.96;69.01
30935;BME280;51033;42.648;23.292;2023-03-16T01:00:49;93029.59;;;2.01;69.19
30935;BME280;51033;42.648;23.292;2023-03-16T01:03:16;93000.91;;;1.81;68.92
30935;BME280;51033;42.648;23.292;2023-03-16T01:05:41;92992.69;;;1.63;69.01
30935;BME280;51033;42.648;23.292;2023-03-16T01:08:07;92998.03;;;1.53;68.98
30935;BME280;51033;42.648;23.292;2023-03-16T01:10:36;93009.19;;;1.64;69.61
30935;BME280;51033;42.648;23.292;2023-03-16T01:13:02;93019.50;;;1.84;68.43
30935;BME280;51033;42.648;23.292;2023-03-16T01:15:29;93014.28;;;1.79;68.55
30935;BME280;51033;42.648;23.292;2023-03-16T01:17:55;93034.25;;;2.04;67.70
30935;BME280;51033;42.648;23.292;2023-03-16T01:20:20;92983.31;;;1.57;68.62
30935;BME280;51033;42.648;23.292;2023-03-16T01:22:46;93021.03;;;1.61;68.73
30935;BME280;51033;42.648;23.292;2023-03-16T01:25:12;93043.78;;;1.37;69.77
30935;BME280;51033;42.648;23.292;2023-03-16T01:27:38;93040.53;;;1.16;70.95
30935;BME280;51033;42.648;23.292;2023-03-16T01:30:04;93041.41;;;1.02;72.03
30935;BME280;51033;42.648;23.292;2023-03-16T01:32:30;93026.75;;;1.01;72.63
30935;BME280;51033;42.648;23.292;2023-03-16T01:34:55;93021.09;;;0.89;72.07
30935;BME280;51033;42.648;23.292;2023-03-16T01:37:21;93017.31;;;1.00;72.62
30935;BME280;51033;42.648;23.292;2023-03-16T01:39:48;93044.91;;;1.26;72.18
30935;BME280;51033;42.648;23.292;2023-03-16T01:42:14;93043.84;;;1.27;72.67
30935;BME280;51033;42.648;23.292;2023-03-16T01:44:54;93044.22;;;1.44;72.35
30935;BME280;51033;42.648;23.292;2023-03-16T01:47:21;93052.00;;;1.20;71.45
30935;BME280;51033;42.648;23.292;2023-03-16T01:49:49;93023.22;;;0.82;73.00
30935;BME280;51033;42.648;23.292;2023-03-16T01:52:22;93047.91;;;1.04;73.30
30935;BME280;51033;42.648;23.292;2023-03-16T01:54:52;93015.72;;;1.04;72.67
30935;BME280;51033;42.648;23.292;2023-03-16T01:57:22;93042.88;;;1.18;72.81
30935;BME280;51033;42.648;23.292;2023-03-16T02:02:38;93029.41;;;0.96;71.55
30935;BME280;51033;42.648;23.292;2023-03-16T02:07:35;93074.91;;;1.05;70.61
30935;BME280;51033;42.648;23.292;2023-03-16T02:10:03;93065.72;;;1.07;71.58
30935;BME280;51033;42.648;23.292;2023-03-16T02:12:29;93068.63;;;1.01;72.02
30935;BME280;51033;42.648;23.292;2023-03-16T02:14:55;93059.75;;;1.02;71.24
30935;BME280;51033;42.648;23.292;2023-03-16T02:17:24;93072.06;;;1.35;71.01
30935;BME280;51033;42.648;23.292;2023-03-16T02:22:42;93082.00;;;1.38;70.03
30935;BME280;51033;42.648;23.292;2023-03-16T02:25:09;93080.13;;;1.44;69.93
30935;BME280;51033;42.648;23.292;2023-03-16T02:30:17;93084.22;;;1.21;69.56
30935;BME280;51033;42.648;23.292;2023-03-16T02:32:45;93073.81;;;1.11;70.18
30935;BME280;51033;42.648;23.292;2023-03-16T02:35:12;93081.41;;;1.12;70.47
30935;BME280;51033;42.648;23.292;2023-03-16T02:37:38;93074.94;;;1.00;70.70
30935;BME280;51033;42.648;23.292;2023-03-16T02:42:52;93098.34;;;1.25;70.47
30935;BME280;51033;42.648;23.292;2023-03-16T02:45:20;93055.03;;;0.99;70.63
30935;BME280;51033;42.648;23.292;2023-03-16T02:47:46;93097.22;;;1.36;69.91
30935;BME280;51033;42.648;23.292;2023-03-16T02:50:15;93086.97;;;1.01;69.95
30935;BME280;51033;42.648;23.292;2023-03-16T02:52:41;93097.00;;;0.89;70.60
30935;BME280;51033;42.648;23.292;2023-03-16T02:55:07;93087.94;;;0.66;71.90
30935;BME280;51033;42.648;23.292;2023-03-16T02:57:33;93101.78;;;0.71;72.86
30935;BME280;51033;42.648;23.292;2023-03-16T02:59:58;93068.97;;;0.35;73.83
30935;BME280;51033;42.648;23.292;2023-03-16T03:02:24;93093.94;;;0.66;73.37
30935;BME280;51033;42.648;23.292;2023-03-16T03:04:49;93081.25;;;0.45;72.51
30935;BME280;51033;42.648;23.292;2023-03-16T03:07:19;93109.72;;;0.51;72.85
30935;BME280;51033;42.648;23.292;2023-03-16T03:09:44;93095.63;;;0.37;72.56
30935;BME280;51033;42.648;23.292;2023-03-16T03:12:11;93118.19;;;0.23;72.41
30935;BME280;51033;42.648;23.292;2023-03-16T03:14:37;93106.72;;;0.04;73.36
30935;BME280;51033;42.648;23.292;2023-03-16T03:17:07;93094.13;;;0.11;73.00
30935;BME280;51033;42.648;23.292;2023-03-16T03:19:34;93103.84;;;0.10;73.09
30935;BME280;51033;42.648;23.292;2023-03-16T03:22:00;93120.00;;;0.22;72.84
30935;BME280;51033;42.648;23.292;2023-03-16T03:24:31;93116.66;;;-0.03;73.58
30935;BME280;51033;42.648;23.292;2023-03-16T03:26:57;93144.34;;;0.08;73.99
30935;BME280;51033;42.648;23.292;2023-03-16T03:29:26;93135.22;;;-0.05;73.66
30935;BME280;51033;42.648;23.292;2023-03-16T03:31:59;93142.28;;;-0.05;75.23
30935;BME280;51033;42.648;23.292;2023-03-16T03:34:26;93123.97;;;0.05;75.51
30935;BME280;51033;42.648;23.292;2023-03-16T03:36:51;93139.63;;;0.25;74.95
30935;BME280;51033;42.648;23.292;2023-03-16T03:39:18;93132.09;;;-0.12;73.31
30935;BME280;51033;42.648;23.292;2023-03-16T03:41:43;93148.56;;;-0.12;73.46
30935;BME280;51033;42.648;23.292;2023-03-16T03:44:08;93133.13;;;-0.13;74.43
30935;BME280;51033;42.648;23.292;2023-03-16T03:46:34;93117.75;;;-0.20;74.65
30935;BME280;51033;42.648;23.292;2023-03-16T03:48:59;93149.34;;;0.04;73.76
30935;BME280;51033;42.648;23.292;2023-03-16T03:51:32;93156.88;;;0.11;72.97
30935;BME280;51033;42.648;23.292;2023-03-16T03:53:58;93139.94;;;-0.17;73.47
30935;BME280;51033;42.648;23.292;2023-03-16T03:56:24;93179.38;;;-0.03;72.73
30935;BME280;51033;42.648;23.292;2023-03-16T03:58:50;93185.66;;;0.11;72.63
30935;BME280;51033;42.648;23.292;2023-03-16T04:01:15;93161.88;;;-0.18;73.33
30935;BME280;51033;42.648;23.292;2023-03-16T04:03:41;93174.44;;;-0.15;72.93
30935;BME280;51033;42.648;23.292;2023-03-16T04:06:06;93180.47;;;-0.04;73.00
30935;BME280;51033;42.648;23.292;2023-03-16T04:08:33;93145.41;;;-0.19;72.35
30935;BME280;51033;42.648;23.292;2023-03-16T04:10:58;93155.88;;;-0.09;72.46
30935;BME280;51033;42.648;23.292;2023-03-16T04:13:24;93159.78;;;-0.01;71.74
30935;BME280;51033;42.648;23.292;2023-03-16T04:15:56;93185.94;;;0.04;71.78
30935;BME280;51033;42.648;23.292;2023-03-16T04:18:22;93184.38;;;-0.07;72.15
30935;BME280;51033;42.648;23.292;2023-03-16T04:20:47;93158.22;;;-0.37;72.20
30935;BME280;51033;42.648;23.292;2023-03-16T04:23:13;93176.28;;;-0.26;72.56
30935;BME280;51033;42.648;23.292;2023-03-16T04:25:40;93193.78;;;-0.21;72.78
30935;BME280;51033;42.648;23.292;2023-03-16T04:28:06;93183.84;;;-0.24;72.91
30935;BME280;51033;42.648;23.292;2023-03-16T04:30:32;93200.81;;;-0.32;71.95
30935;BME280;51033;42.648;23.292;2023-03-16T04:32:57;93199.78;;;-0.21;72.97
30935;BME280;51033;42.648;23.292;2023-03-16T04:35:22;93196.41;;;-0.16;72.59
30935;BME280;51033;42.648;23.292;2023-03-16T04:37:48;93212.88;;;-0.11;71.50
30935;BME280;51033;42.648;23.292;2023-03-16T04:40:13;93177.56;;;-0.28;71.75
30935;BME280;51033;42.648;23.292;2023-03-16T04:42:44;93201.38;;;-0.04;72.26
30935;BME280;51033;42.648;23.292;2023-03-16T04:45:10;93217.56;;;-0.08;71.22
30935;BME280;51033;42.648;23.292;2023-03-16T04:47:37;93218.59;;;-0.03;71.44
30935;BME280;51033;42.648;23.292;2023-03-16T04:50:03;93208.44;;;-0.10;71.20
30935;BME280;51033;42.648;23.292;2023-03-16T04:52:28;93209.19;;;-0.30;71.57
30935;BME280;51033;42.648;23.292;2023-03-16T04:54:54;93207.84;;;-0.47;71.90
30935;BME280;51033;42.648;23.292;2023-03-16T04:57:20;93214.66;;;-0.41;72.60
30935;BME280;51033;42.648;23.292;2023-03-16T04:59:46;93187.22;;;-0.54;73.60
30935;BME280;51033;42.648;23.292;2023-03-16T05:02:11;93227.75;;;-0.06;71.80
30935;BME280;51033;42.648;23.292;2023-03-16T05:04:37;93244.25;;;0.05;71.24
30935;BME280;51033;42.648;23.292;2023-03-16T05:07:02;93207.63;;;-0.36;71.50
30935;BME280;51033;42.648;23.292;2023-03-16T05:09:28;93234.56;;;-0.15;71.42
30935;BME280;51033;42.648;23.292;2023-03-16T05:11:53;93221.75;;;-0.12;71.60
30935;BME280;51033;42.648;23.292;2023-03-16T05:14:18;93228.81;;;-0.02;71.03
30935;BME280;51033;42.648;23.292;2023-03-16T05:16:44;93219.13;;;-0.12;71.19
30935;BME280;51033;42.648;23.292;2023-03-16T05:19:09;93244.50;;;0.08;70.71
30935;BME280;51033;42.648;23.292;2023-03-16T05:21:34;93244.75;;;-0.03;70.04
30935;BME280;51033;42.648;23.292;2023-03-16T05:24:05;93215.47;;;-0.26;70.54
30935;BME280;51033;42.648;23.292;2023-03-16T05:26:31;93230.63;;;-0.18;70.41
30935;BME280;51033;42.648;23.292;2023-03-16T05:28:57;93262.00;;;-0.08;70.45
30935;BME280;51033;42.648;23.292;2023-03-16T05:31:22;93237.38;;;-0.42;71.20
30935;BME280;51033;42.648;23.292;2023-03-16T05:33:51;93262.78;;;-0.17;70.75
30935;BME280;51033;42.648;23.292;2023-03-16T05:36:16;93265.66;;;-0.29;70.93
30935;BME280;51033;42.648;23.292;2023-03-16T05:38:42;93240.28;;;-0.43;71.58
30935;BME280;51033;42.648;23.292;2023-03-16T05:41:07;93276.63;;;-0.22;71.77
30935;BME280;51033;42.648;23.292;2023-03-16T05:43:33;93252.06;;;-0.26;72.15
30935;BME280;51033;42.648;23.292;2023-03-16T05:45:58;93264.84;;;-0.29;71.19
30935;BME280;51033;42.648;23.292;2023-03-16T05:48:24;93284.69;;;-0.33;71.94
30935;BME280;51033;42.648;23.292;2023-03-16T05:50:53;93265.56;;;-0.59;72.95
30935;BME280;51033;42.648;23.292;2023-03-16T05:53:19;93294.63;;;-0.30;73.12
30935;BME280;51033;42.648;23.292;2023-03-16T05:55:50;93289.91;;;-0.33;73.40
30935;BME280;51033;42.648;23.292;2023-03-16T05:58:16;93278.16;;;-0.31;73.21
30935;BME280;51033;42.648;23.292;2023-03-16T06:00:41;93301.44;;;-0.34;73.64
30935;BME280;51033;42.648;23.292;2023-03-16T06:03:06;93302.72;;;-0.32;74.04
30935;BME280;51033;42.648;23.292;2023-03-16T06:05:32;93293.06;;;-0.31;73.17
30935;BME280;51033;42.648;23.292;2023-03-16T06:07:57;93313.19;;;-0.32;72.59
30935;BME280;51033;42.648;23.292;2023-03-16T06:10:23;93301.66;;;-0.41;73.22
30935;BME280;51033;42.648;23.292;2023-03-16T06:12:50;93280.47;;;-0.49;73.12
30935;BME280;51033;42.648;23.292;2023-03-16T06:15:16;93323.63;;;-0.37;73.95
30935;BME280;51033;42.648;23.292;2023-03-16T06:17:41;93306.09;;;-0.41;73.92
30935;BME280;51033;42.648;23.292;2023-03-16T06:20:08;93310.25;;;-0.51;73.76
30935;BME280;51033;42.648;23.292;2023-03-16T06:22:39;93305.28;;;-0.47;74.04
30935;BME280;51033;42.648;23.292;2023-03-16T06:25:06;93316.75;;;-0.53;74.45
30935;BME280;51033;42.648;23.292;2023-03-16T06:27:32;93314.16;;;-0.48;74.80
30935;BME280;51033;42.648;23.292;2023-03-16T06:29:57;93309.75;;;-0.42;73.10
30935;BME280;51033;42.648;23.292;2023-03-16T06:32:23;93313.59;;;-0.65;72.68
30935;BME280;51033;42.648;23.292;2023-03-16T06:34:48;93313.13;;;-0.52;73.33
30935;BME280;51033;42.648;23.292;2023-03-16T06:37:13;93325.72;;;-0.34;73.09
30935;BME280;51033;42.648;23.292;2023-03-16T06:39:39;93308.97;;;-0.38;71.86
30935;BME280;51033;42.648;23.292;2023-03-16T06:42:04;93348.00;;;-0.11;71.82
30935;BME280;51033;42.648;23.292;2023-03-16T06:44:30;93315.53;;;-0.30;71.42
30935;BME280;51033;42.648;23.292;2023-03-16T06:46:56;93355.03;;;-0.22;71.52
30935;BME280;51033;42.648;23.292;2023-03-16T06:49:22;93340.09;;;-0.31;72.61
30935;BME280;51033;42.648;23.292;2023-03-16T06:51:47;93358.72;;;-0.08;71.47
30935;BME280;51033;42.648;23.292;2023-03-16T06:54:13;93364.47;;;-0.11;70.38
30935;BME280;51033;42.648;23.292;2023-03-16T06:56:38;93339.72;;;-0.60;70.15
30935;BME280;51033;42.648;23.292;2023-03-16T06:59:03;93320.59;;;-0.76;72.36
30935;BME280;51033;42.648;23.292;2023-03-16T07:01:29;93376.69;;;-0.31;72.31
30935;BME280;51033;42.648;23.292;2023-03-16T07:03:54;93376.97;;;-0.18;71.17
30935;BME280;51033;42.648;23.292;2023-03-16T07:06:19;93379.88;;;-0.04;71.31
30935;BME280;51033;42.648;23.292;2023-03-16T07:08:46;93374.97;;;0.05;70.19
30935;BME280;51033;42.648;23.292;2023-03-16T07:11:12;93388.03;;;-0.00;70.42
30935;BME280;51033;42.648;23.292;2023-03-16T07:13:39;93351.34;;;-0.26;70.37
30935;BME280;51033;42.648;23.292;2023-03-16T07:16:04;93369.69;;;-0.11;70.38
30935;BME280;51033;42.648;23.292;2023-03-16T07:18:30;93384.31;;;-0.15;71.53
30935;BME280;51033;42.648;23.292;2023-03-16T07:20:56;93379.63;;;-0.08;71.62
30935;BME280;51033;42.648;23.292;2023-03-16T07:23:21;93362.13;;;-0.07;70.45
30935;BME280;51033;42.648;23.292;2023-03-16T07:25:48;93378.03;;;-0.14;70.01
30935;BME280;51033;42.648;23.292;2023-03-16T07:28:13;93409.19;;;-0.02;71.02
30935;BME280;51033;42.648;23.292;2023-03-16T07:30:39;93412.31;;;-0.05;71.46
30935;BME280;51033;42.648;23.292;2023-03-16T07:33:04;93408.31;;;-0.23;71.63
30935;BME280;51033;42.648;23.292;2023-03-16T07:35:30;93391.06;;;-0.29;71.82
30935;BME280;51033;42.648;23.292;2023-03-16T07:37:56;93382.13;;;-0.38;72.17
30935;BME280;51033;42.648;23.292;2023-03-16T07:40:21;93408.38;;;-0.08;72.15
30935;BME280;51033;42.648;23.292;2023-03-16T07:42:47;93418.56;;;-0.11;71.41
30935;BME280;51033;42.648;23.292;2023-03-16T07:45:13;93410.50;;;0.01;70.37
30935;BME280;51033;42.648;23.292;2023-03-16T07:47:39;93426.22;;;0.16;69.55
30935;BME280;51033;42.648;23.292;2023-03-16T07:50:05;93423.09;;;0.09;70.85
30935;BME280;51033;42.648;23.292;2023-03-16T07:52:30;93417.34;;;0.17;70.73
30935;BME280;51033;42.648;23.292;2023-03-16T07:54:56;93392.19;;;0.06;70.43
30935;BME280;51033;42.648;23.292;2023-03-16T07:57:21;93391.69;;;-0.01;69.16
30935;BME280;51033;42.648;23.292;2023-03-16T07:59:47;93427.81;;;0.22;69.98
30935;BME280;51033;42.648;23.292;2023-03-16T08:02:14;93390.66;;;0.05;70.17
30935;BME280;51033;42.648;23.292;2023-03-16T08:04:40;93409.03;;;0.30;69.01
30935;BME280;51033;42.648;23.292;2023-03-16T08:07:10;93421.63;;;0.58;68.78
30935;BME280;51033;42.648;23.292;2023-03-16T08:09:35;93393.31;;;0.30;67.65
30935;BME280;51033;42.648;23.292;2023-03-16T08:12:02;93417.94;;;0.39;68.80
30935;BME280;51033;42.648;23.292;2023-03-16T08:14:28;93428.13;;;0.41;69.08
30935;BME280;51033;42.648;23.292;2023-03-16T08:16:53;93425.25;;;0.37;69.40
30935;BME280;51033;42.648;23.292;2023-03-16T08:19:19;93437.28;;;0.38;69.37
30935;BME280;51033;42.648;23.292;2023-03-16T08:21:44;93433.34;;;0.46;69.41
30935;BME280;51033;42.648;23.292;2023-03-16T08:24:10;93442.53;;;0.48;69.08
30935;BME280;51033;42.648;23.292;2023-03-16T08:26:35;93442.78;;;0.52;68.29
30935;BME280;51033;42.648;23.292;2023-03-16T08:29:01;93439.38;;;0.56;68.71
30935;BME280;51033;42.648;23.292;2023-03-16T08:31:27;93409.00;;;0.40;68.50
30935;BME280;51033;42.648;23.292;2023-03-16T08:33:53;93411.91;;;0.33;67.48
30935;BME280;51033;42.648;23.292;2023-03-16T08:36:18;93446.75;;;0.59;67.67
30935;BME280;51033;42.648;23.292;2023-03-16T08:38:45;93459.81;;;0.69;68.01
30935;BME280;51033;42.648;23.292;2023-03-16T08:41:11;93448.28;;;0.55;67.37
30935;BME280;51033;42.648;23.292;2023-03-16T08:43:38;93444.63;;;0.56;67.72
30935;BME280;51033;42.648;23.292;2023-03-16T08:46:03;93455.13;;;0.76;68.35
30935;BME280;51033;42.648;23.292;2023-03-16T08:48:30;93462.19;;;0.86;66.82
30935;BME280;51033;42.648;23.292;2023-03-16T08:51:00;93460.91;;;0.84;67.70
30935;BME280;51033;42.648;23.292;2023-03-16T08:53:26;93460.91;;;0.73;66.61
30935;BME280;51033;42.648;23.292;2023-03-16T08:56:00;93457.75;;;0.87;66.97
30935;BME280;51033;42.648;23.292;2023-03-16T08:58:25;93447.25;;;0.61;66.98
30935;BME280;51033;42.648;23.292;2023-03-16T09:00:51;93454.06;;;0.67;66.86
30935;BME280;51033;42.648;23.292;2023-03-16T09:03:17;93455.66;;;0.84;67.68
30935;BME280;51033;42.648;23.292;2023-03-16T09:05:42;93460.34;;;0.76;65.96
30935;BME280;51033;42.648;23.292;2023-03-16T09:08:07;93465.59;;;0.71;67.63
30935;BME280;51033;42.648;23.292;2023-03-16T09:10:33;93472.91;;;0.79;68.20
30935;BME280;51033;42.648;23.292;2023-03-16T09:13:00;93446.22;;;0.57;66.95
30935;BME280;51033;42.648;23.292;2023-03-16T09:15:26;93444.06;;;0.34;66.85
30935;BME280;51033;42.648;23.292;2023-03-16T09:17:53;93483.38;;;0.74;67.47
30935;BME280;51033;42.648;23.292;2023-03-16T09:20:18;93477.13;;;0.80;67.24
30935;BME280;51033;42.648;23.292;2023-03-16T09:22:45;93464.03;;;0.75;66.98
30935;BME280;51033;42.648;23.292;2023-03-16T09:25:11;93471.38;;;0.84;67.99
30935;BME280;51033;42.648;23.292;2023-03-16T09:27:36;93488.13;;;0.98;68.26
30935;BME280;51033;42.648;23.292;2023-03-16T09:30:06;93487.59;;;0.91;66.91
30935;BME280;51033;42.648;23.292;2023-03-16T09:32:32;93467.66;;;0.69;66.81
30935;BME280;51033;42.648;23.292;2023-03-16T09:34:57;93485.50;;;0.93;66.38
30935;BME280;51033;42.648;23.292;2023-03-16T09:37:23;93491.53;;;1.13;67.06
30935;BME280;51033;42.648;23.292;2023-03-16T09:39:50;93492.84;;;1.26;66.00
30935;BME280;51033;42.648;23.292;2023-03-16T09:42:20;93486.03;;;1.15;66.07
30935;BME280;51033;42.648;23.292;2023-03-16T09:47:31;93490.78;;;1.13;65.13
30935;BME280;51033;42.648;23.292;2023-03-16T09:49:59;93495.22;;;1.12;67.39
30935;BME280;51033;42.648;23.292;2023-03-16T09:52:49;93490.78;;;1.13;68.21
30935;BME280;51033;42.648;23.292;2023-03-16T09:55:29;93459.06;;;1.09;68.18
30935;BME280;51033;42.648;23.292;2023-03-16T09:57:57;93490.75;;;1.23;67.63
30935;BME280;51033;42.648;23.292;2023-03-16T10:00:26;93452.53;;;1.12;68.96
30935;BME280;51033;42.648;23.292;2023-03-16T10:03:19;93498.88;;;1.47;68.49
30935;BME280;51033;42.648;23.292;2023-03-16T10:05:57;93452.53;;;1.12;66.90
30935;BME280;51033;42.648;23.292;2023-03-16T10:08:31;93457.75;;;1.12;66.24
30935;BME280;51033;42.648;23.292;2023-03-16T10:16:16;93498.34;;;0.99;66.97
30935;BME280;51033;42.648;23.292;2023-03-16T10:18:49;93483.16;;;0.86;67.32
30935;BME280;51033;42.648;23.292;2023-03-16T10:21:18;93500.69;;;0.96;66.40
30935;BME280;51033;42.648;23.292;2023-03-16T10:23:46;93475.53;;;0.90;68.00
30935;BME280;51033;42.648;23.292;2023-03-16T10:26:26;93483.41;;;1.05;66.96
30935;BME280;51033;42.648;23.292;2023-03-16T10:28:53;93484.19;;;1.15;66.09
30935;BME280;51033;42.648;23.292;2023-03-16T10:31:21;93503.31;;;1.11;65.86
30935;BME280;51033;42.648;23.292;2023-03-16T10:33:48;93479.22;;;0.89;67.18
30935;BME280;51033;42.648;23.292;2023-03-16T10:36:37;93506.47;;;1.18;67.07
30935;BME280;51033;42.648;23.292;2023-03-16T10:39:08;93504.38;;;1.05;66.98
30935;BME280;51033;42.648;23.292;2023-03-16T10:41:38;93498.88;;;1.11;67.82
30935;BME280;51033;42.648;23.292;2023-03-16T10:46:47;93476.59;;;1.24;66.08
30935;BME280;51033;42.648;23.292;2023-03-16T10:49:22;93499.66;;;1.32;65.82
30935;BME280;51033;42.648;23.292;2023-03-16T10:51:50;93499.94;;;1.26;65.49
30935;BME280;51033;42.648;23.292;2023-03-16T10:54:28;93493.66;;;1.27;65.24
30935;BME280;51033;42.648;23.292;2023-03-16T10:56:57;93492.31;;;1.19;66.26
30935;BME280;51033;42.648;23.292;2023-03-16T10:59:30;93501.22;;;1.38;66.81
30935;BME280;51033;42.648;23.292;2023-03-16T11:01:56;93495.72;;;1.35;65.93
30935;BME280;51033;42.648;23.292;2023-03-16T11:04:22;93501.22;;;1.23;66.55
30935;BME280;51033;42.648;23.292;2023-03-16T11:06:57;93488.66;;;1.15;65.11
30935;BME280;51033;42.648;23.292;2023-03-16T11:09:25;93497.31;;;1.15;66.36
30935;BME280;51033;42.648;23.292;2023-03-16T11:11:56;93483.94;;;1.07;67.63
30935;BME280;51033;42.648;23.292;2023-03-16T11:14:25;93468.22;;;1.02;66.01
30935;BME280;51033;42.648;23.292;2023-03-16T11:17:17;93501.22;;;1.33;66.07
30935;BME280;51033;42.648;23.292;2023-03-16T11:19:55;93477.13;;;1.26;65.57
30935;BME280;51033;42.648;23.292;2023-03-16T11:22:23;93501.22;;;1.28;65.74
30935;BME280;51033;42.648;23.292;2023-03-16T11:27:34;93507.00;;;1.40;65.30
30935;BME280;51033;42.648;23.292;2023-03-16T11:30:11;93475.53;;;0.90;66.05
30935;BME280;51033;42.648;23.292;2023-03-16T11:32:39;93480.28;;;0.93;66.05
30935;BME280;51033;42.648;23.292;2023-03-16T11:35:14;93479.22;;;0.84;65.73
30935;BME280;51033;42.648;23.292;2023-03-16T11:38:16;93492.84;;;1.11;66.32
30935;BME280;51033;42.648;23.292;2023-03-16T11:40:54;93501.75;;;1.25;65.71
30935;BME280;51033;42.648;23.292;2023-03-16T11:46:13;93472.41;;;0.88;66.69
30935;BME280;51033;42.648;23.292;2023-03-16T11:54:39;93443.34;;;0.54;67.06
30935;BME280;51033;42.648;23.292;2023-03-16T11:57:29;93508.03;;;1.04;66.96
30935;BME280;51033;42.648;23.292;2023-03-16T12:00:20;93511.16;;;0.96;67.39
30935;BME280;51033;42.648;23.292;2023-03-16T12:11:59;93521.38;;;0.87;66.09
30935;BME280;51033;42.648;23.292;2023-03-16T12:14:40;93490.97;;;0.76;66.82
30935;BME280;51033;42.648;23.292;2023-03-16T12:19:48;93509.09;;;0.93;66.58
30935;BME280;51033;42.648;23.292;2023-03-16T12:22:20;93531.31;;;0.85;67.44
30935;BME280;51033;42.648;23.292;2023-03-16T12:24:47;93523.19;;;0.87;67.01
30935;BME280;51033;42.648;23.292;2023-03-16T12:27:32;93530.56;;;1.05;66.45
30935;BME280;51033;42.648;23.292;2023-03-16T12:33:00;93535.28;;;1.08;66.27
30935;BME280;51033;42.648;23.292;2023-03-16T12:45:50;93554.41;;;1.23;66.52
30935;BME280;51033;42.648;23.292;2023-03-16T12:48:27;93551.50;;;1.00;66.19
30935;BME280;51033;42.648;23.292;2023-03-16T12:50:59;93546.78;;;0.87;67.07
30935;BME280;51033;42.648;23.292;2023-03-16T12:55:53;93531.84;;;0.82;68.15
30935;BME280;51033;42.648;23.292;2023-03-16T12:58:22;93565.41;;;1.15;67.99
30935;BME280;51033;42.648;23.292;2023-03-16T13:00:55;93553.06;;;1.01;68.84
30935;BME280;51033;42.648;23.292;2023-03-16T13:03:24;93560.41;;;1.04;69.58
30935;BME280;51033;42.648;23.292;2023-03-16T13:05:58;93557.50;;;0.85;70.56
30935;BME280;51033;42.648;23.292;2023-03-16T13:08:25;93545.94;;;0.71;70.52
30935;BME280;51033;42.648;23.292;2023-03-16T13:11:04;93563.47;;;0.65;71.79
30935;BME280;51033;42.648;23.292;2023-03-16T13:13:31;93570.84;;;0.84;72.14
30935;BME280;51033;42.648;23.292;2023-03-16T13:16:03;93573.19;;;0.85;71.80
30935;BME280;51033;42.648;23.292;2023-03-16T13:18:37;93571.59;;;0.64;72.58
30935;BME280;51033;42.648;23.292;2023-03-16T13:21:34;93578.94;;;0.77;72.09
30935;BME280;51033;42.648;23.292;2023-03-16T13:24:26;93579.50;;;0.94;71.61
30935;BME280;51033;42.648;23.292;2023-03-16T13:27:02;93575.03;;;0.90;70.78
30935;BME280;51033;42.648;23.292;2023-03-16T13:29:31;93559.84;;;0.87;70.67
30935;BME280;51033;42.648;23.292;2023-03-16T13:31:59;93578.72;;;0.94;71.17
30935;BME280;51033;42.648;23.292;2023-03-16T13:34:31;93559.88;;;0.97;71.15
30935;BME280;51033;42.648;23.292;2023-03-16T13:36:59;93581.66;;;1.17;70.92
30935;BME280;51033;42.648;23.292;2023-03-16T13:39:28;93577.72;;;1.15;70.83
30935;BME280;51033;42.648;23.292;2023-03-16T13:42:15;93578.47;;;1.00;71.68
30935;BME280;51033;42.648;23.292;2023-03-16T13:44:42;93563.28;;;0.97;71.87
30935;BME280;51033;42.648;23.292;2023-03-16T13:47:12;93588.44;;;1.13;72.30
30935;BME280;51033;42.648;23.292;2023-03-16T13:50:03;93572.50;;;1.25;72.02
30935;BME280;51033;42.648;23.292;2023-03-16T13:52:29;93588.97;;;1.15;71.78
30935;BME280;51033;42.648;23.292;2023-03-16T13:54:57;93594.22;;;1.20;71.62
30935;BME280;51033;42.648;23.292;2023-03-16T13:57:25;93575.88;;;1.20;71.08
30935;BME280;51033;42.648;23.292;2023-03-16T13:59:59;93589.81;;;1.36;70.83
30935;BME280;51033;42.648;23.292;2023-03-16T14:02:26;93601.34;;;1.50;71.18
30935;BME280;51033;42.648;23.292;2023-03-16T14:04:51;93583.75;;;1.36;69.85
30935;BME280;51033;42.648;23.292;2023-03-16T14:07:19;93598.94;;;1.29;69.35